sensor_id;sensor_type;location;lat;lon;timestamp;pressure;altitude;pressure_sealevel;temperature;humidity
28626;BME280;18905;42.668;23.364;2023-02-21T00:02:28;95481.78;;;6.58;99.62
28626;BME280;18905;42.668;23.364;2023-02-21T00:05:12;95480.75;;;6.54;100.00
28626;BME280;18905;42.668;23.364;2023-02-21T00:07:56;95478.59;;;6.56;99.96
28626;BME280;18905;42.668;23.364;2023-02-21T00:10:40;95485.31;;;6.54;99.72
28626;BME280;18905;42.668;23.364;2023-02-21T00:13:24;95482.47;;;6.45;99.68
28626;BME280;18905;42.668;23.364;2023-02-21T00:16:08;95483.00;;;6.42;100.00
28626;BME280;18905;42.668;23.364;2023-02-21T00:18:56;95484.97;;;6.32;100.00
28626;BME280;18905;42.668;23.364;2023-02-21T00:21:40;95487.16;;;6.30;100.00
28626;BME280;18905;42.668;23.364;2023-02-21T00:24:24;95492.25;;;6.26;100.00
28626;BME280;18905;42.668;23.364;2023-02-21T00:27:08;95487.56;;;6.13;100.00
28626;BME280;18905;42.668;23.364;2023-02-21T00:29:52;95476.53;;;6.15;100.00
28626;BME280;18905;42.668;23.364;2023-02-21T00:32:36;95474.63;;;6.20;100.00
28626;BME280;18905;42.668;23.364;2023-02-21T00:35:20;95462.19;;;5.96;100.00
28626;BME280;18905;42.668;23.364;2023-02-21T00:38:04;95467.22;;;6.07;100.00
28626;BME280;18905;42.668;23.364;2023-02-21T00:40:48;95464.69;;;6.21;100.00
28626;BME280;18905;42.668;23.364;2023-02-21T00:43:33;95467.06;;;5.94;100.00
28626;BME280;18905;42.668;23.364;2023-02-21T00:46:18;95466.06;;;5.80;100.00
28626;BME280;18905;42.668;23.364;2023-02-21T00:49:03;95457.66;;;5.96;100.00
28626;BME280;18905;42.668;23.364;2023-02-21T00:51:47;95458.09;;;5.65;100.00
28626;BME280;18905;42.668;23.364;2023-02-21T00:54:31;95448.66;;;5.82;100.00
28626;BME280;18905;42.668;23.364;2023-02-21T00:57:14;95447.38;;;5.70;100.00
28626;BME280;18905;42.668;23.364;2023-02-21T00:59:59;95437.31;;;5.52;100.00
28626;BME280;18905;42.668;23.364;2023-02-21T01:02:43;95431.28;;;5.70;100.00
28626;BME280;18905;42.668;23.364;2023-02-21T01:05:27;95428.84;;;5.73;100.00
28626;BME280;18905;42.668;23.364;2023-02-21T01:08:10;95425.31;;;5.88;100.00
28626;BME280;18905;42.668;23.364;2023-02-21T01:10:54;95415.00;;;6.00;100.00
28626;BME280;18905;42.668;23.364;2023-02-21T01:13:38;95421.69;;;6.02;100.00
28626;BME280;18905;42.668;23.364;2023-02-21T01:16:22;95413.84;;;6.11;100.00
28626;BME280;18905;42.668;23.364;2023-02-21T01:19:06;95404.13;;;6.15;100.00
28626;BME280;18905;42.668;23.364;2023-02-21T01:21:50;95404.00;;;6.01;100.00
28626;BME280;18905;42.668;23.364;2023-02-21T01:24:34;95402.03;;;6.12;100.00
28626;BME280;18905;42.668;23.364;2023-02-21T01:27:18;95398.81;;;6.10;100.00
28626;BME280;18905;42.668;23.364;2023-02-21T01:30:02;95395.03;;;6.16;100.00
28626;BME280;18905;42.668;23.364;2023-02-21T01:32:46;95400.34;;;6.21;100.00
28626;BME280;18905;42.668;23.364;2023-02-21T01:35:30;95394.81;;;6.36;100.00
28626;BME280;18905;42.668;23.364;2023-02-21T01:38:14;95394.94;;;6.26;100.00
28626;BME280;18905;42.668;23.364;2023-02-21T01:40:58;95396.69;;;6.35;100.00
28626;BME280;18905;42.668;23.364;2023-02-21T01:44:05;95402.50;;;6.47;99.93
28626;BME280;18905;42.668;23.364;2023-02-21T01:46:49;95388.75;;;6.54;99.10
28626;BME280;18905;42.668;23.364;2023-02-21T01:49:34;95391.47;;;6.49;98.43
28626;BME280;18905;42.668;23.364;2023-02-21T01:52:19;95385.97;;;6.35;98.86
28626;BME280;18905;42.668;23.364;2023-02-21T01:55:03;95382.50;;;6.35;98.96
28626;BME280;18905;42.668;23.364;2023-02-21T01:57:48;95376.53;;;6.43;98.80
28626;BME280;18905;42.668;23.364;2023-02-21T02:00:33;95367.78;;;6.56;97.17
28626;BME280;18905;42.668;23.364;2023-02-21T02:03:18;95368.97;;;6.45;98.05
28626;BME280;18905;42.668;23.364;2023-02-21T02:06:03;95359.34;;;6.44;97.63
28626;BME280;18905;42.668;23.364;2023-02-21T02:08:47;95355.50;;;6.50;96.70
28626;BME280;18905;42.668;23.364;2023-02-21T02:24:59;95351.94;;;6.59;98.01
28626;BME280;18905;42.668;23.364;2023-02-21T02:38:10;95341.41;;;6.63;96.87
28626;BME280;18905;42.668;23.364;2023-02-21T02:40:42;95349.88;;;6.51;98.54
28626;BME280;18905;42.668;23.364;2023-02-21T02:46:00;95343.94;;;6.54;97.93
28626;BME280;18905;42.668;23.364;2023-02-21T02:48:30;95340.28;;;6.45;97.75
28626;BME280;18905;42.668;23.364;2023-02-21T02:50:57;95333.66;;;6.38;98.64
28626;BME280;18905;42.668;23.364;2023-02-21T02:53:25;95335.81;;;6.36;98.65
28626;BME280;18905;42.668;23.364;2023-02-21T02:56:00;95337.41;;;6.37;97.82
28626;BME280;18905;42.668;23.364;2023-02-21T02:58:27;95333.94;;;6.36;97.37
28626;BME280;18905;42.668;23.364;2023-02-21T03:01:17;95339.00;;;6.38;97.24
28626;BME280;18905;42.668;23.364;2023-02-21T03:06:21;95335.00;;;6.40;97.71
28626;BME280;18905;42.668;23.364;2023-02-21T03:08:52;95338.66;;;6.44;97.84
28626;BME280;18905;42.668;23.364;2023-02-21T03:11:19;95341.00;;;6.51;97.39
28626;BME280;18905;42.668;23.364;2023-02-21T03:14:00;95337.03;;;6.48;97.56
28626;BME280;18905;42.668;23.364;2023-02-21T03:19:02;95334.28;;;6.53;97.26
28626;BME280;18905;42.668;23.364;2023-02-21T03:21:33;95337.72;;;6.59;97.27
28626;BME280;18905;42.668;23.364;2023-02-21T03:24:01;95336.13;;;6.58;97.06
28626;BME280;18905;42.668;23.364;2023-02-21T03:26:29;95333.47;;;6.29;97.96
28626;BME280;18905;42.668;23.364;2023-02-21T03:28:56;95331.03;;;6.33;98.83
28626;BME280;18905;42.668;23.364;2023-02-21T03:31:23;95333.19;;;6.31;98.97
28626;BME280;18905;42.668;23.364;2023-02-21T03:33:49;95314.88;;;6.38;98.96
28626;BME280;18905;42.668;23.364;2023-02-21T03:36:15;95318.69;;;6.32;98.49
28626;BME280;18905;42.668;23.364;2023-02-21T03:38:40;95326.41;;;6.38;97.78
28626;BME280;18905;42.668;23.364;2023-02-21T03:41:06;95325.91;;;6.36;98.07
28626;BME280;18905;42.668;23.364;2023-02-21T03:43:32;95316.78;;;6.37;99.35
28626;BME280;18905;42.668;23.364;2023-02-21T03:45:57;95325.56;;;6.43;98.96
28626;BME280;18905;42.668;23.364;2023-02-21T03:48:23;95326.06;;;6.45;98.21
28626;BME280;18905;42.668;23.364;2023-02-21T03:50:48;95323.16;;;6.41;98.19
28626;BME280;18905;42.668;23.364;2023-02-21T03:53:13;95336.50;;;6.23;98.10
28626;BME280;18905;42.668;23.364;2023-02-21T03:55:38;95337.09;;;6.20;99.26
28626;BME280;18905;42.668;23.364;2023-02-21T03:58:04;95347.97;;;6.28;99.75
28626;BME280;18905;42.668;23.364;2023-02-21T04:00:29;95337.66;;;6.17;100.00
28626;BME280;18905;42.668;23.364;2023-02-21T04:02:54;95341.09;;;6.17;100.00
28626;BME280;18905;42.668;23.364;2023-02-21T04:05:20;95333.88;;;6.18;100.00
28626;BME280;18905;42.668;23.364;2023-02-21T04:07:45;95338.59;;;6.02;100.00
28626;BME280;18905;42.668;23.364;2023-02-21T04:10:11;95335.56;;;6.09;100.00
28626;BME280;18905;42.668;23.364;2023-02-21T04:12:36;95340.66;;;6.10;100.00
28626;BME280;18905;42.668;23.364;2023-02-21T04:15:01;95349.72;;;6.14;100.00
28626;BME280;18905;42.668;23.364;2023-02-21T04:17:26;95349.69;;;6.19;100.00
28626;BME280;18905;42.668;23.364;2023-02-21T04:19:52;95346.13;;;6.24;100.00
28626;BME280;18905;42.668;23.364;2023-02-21T04:22:17;95362.28;;;6.19;99.89
28626;BME280;18905;42.668;23.364;2023-02-21T04:24:42;95352.38;;;6.19;100.00
28626;BME280;18905;42.668;23.364;2023-02-21T04:27:07;95363.13;;;6.14;100.00
28626;BME280;18905;42.668;23.364;2023-02-21T04:29:33;95373.59;;;6.16;100.00
28626;BME280;18905;42.668;23.364;2023-02-21T04:31:58;95368.22;;;6.16;100.00
28626;BME280;18905;42.668;23.364;2023-02-21T04:34:23;95370.47;;;6.04;100.00
28626;BME280;18905;42.668;23.364;2023-02-21T04:36:49;95376.31;;;6.11;100.00
28626;BME280;18905;42.668;23.364;2023-02-21T04:39:14;95375.28;;;6.07;100.00
28626;BME280;18905;42.668;23.364;2023-02-21T04:41:39;95369.09;;;6.06;100.00
28626;BME280;18905;42.668;23.364;2023-02-21T04:44:05;95385.19;;;6.06;100.00
28626;BME280;18905;42.668;23.364;2023-02-21T04:46:30;95374.13;;;6.13;100.00
28626;BME280;18905;42.668;23.364;2023-02-21T04:48:56;95362.31;;;6.14;100.00
28626;BME280;18905;42.668;23.364;2023-02-21T04:51:22;95365.88;;;6.09;100.00
28626;BME280;18905;42.668;23.364;2023-02-21T04:53:47;95361.81;;;6.12;100.00
28626;BME280;18905;42.668;23.364;2023-02-21T04:56:13;95360.25;;;6.06;100.00
28626;BME280;18905;42.668;23.364;2023-02-21T04:58:40;95354.69;;;5.64;100.00
28626;BME280;18905;42.668;23.364;2023-02-21T05:01:05;95352.59;;;5.94;100.00
28626;BME280;18905;42.668;23.364;2023-02-21T05:03:30;95358.06;;;7.44;100.00
28626;BME280;18905;42.668;23.364;2023-02-21T05:05:55;95349.38;;;7.65;100.00
28626;BME280;18905;42.668;23.364;2023-02-21T05:08:21;95335.53;;;8.22;100.00
28626;BME280;18905;42.668;23.364;2023-02-21T05:10:48;95340.47;;;8.15;100.00
28626;BME280;18905;42.668;23.364;2023-02-21T05:13:13;95334.38;;;8.42;97.85
28626;BME280;18905;42.668;23.364;2023-02-21T05:15:38;95326.03;;;8.11;87.39
28626;BME280;18905;42.668;23.364;2023-02-21T05:18:04;95327.44;;;7.77;87.35
28626;BME280;18905;42.668;23.364;2023-02-21T05:20:29;95322.38;;;7.57;87.17
28626;BME280;18905;42.668;23.364;2023-02-21T05:22:54;95328.59;;;7.39;88.24
28626;BME280;18905;42.668;23.364;2023-02-21T05:25:21;95319.84;;;7.10;91.45
28626;BME280;18905;42.668;23.364;2023-02-21T05:27:46;95327.66;;;6.46;96.31
28626;BME280;18905;42.668;23.364;2023-02-21T05:30:13;95334.09;;;6.21;100.00
28626;BME280;18905;42.668;23.364;2023-02-21T05:32:39;95332.88;;;5.80;100.00
28626;BME280;18905;42.668;23.364;2023-02-21T05:35:04;95335.34;;;5.38;100.00
28626;BME280;18905;42.668;23.364;2023-02-21T05:37:29;95336.28;;;5.19;100.00
28626;BME280;18905;42.668;23.364;2023-02-21T05:39:55;95337.13;;;5.14;100.00
28626;BME280;18905;42.668;23.364;2023-02-21T05:42:20;95341.56;;;5.34;100.00
28626;BME280;18905;42.668;23.364;2023-02-21T05:44:46;95346.88;;;5.39;100.00
28626;BME280;18905;42.668;23.364;2023-02-21T05:54:57;95356.44;;;5.83;100.00
28626;BME280;18905;42.668;23.364;2023-02-21T05:57:22;95355.47;;;6.03;100.00
28626;BME280;18905;42.668;23.364;2023-02-21T05:59:47;95361.72;;;6.22;100.00
28626;BME280;18905;42.668;23.364;2023-02-21T06:02:13;95352.03;;;6.26;100.00
28626;BME280;18905;42.668;23.364;2023-02-21T06:04:39;95366.84;;;6.42;100.00
28626;BME280;18905;42.668;23.364;2023-02-21T06:07:04;95364.25;;;6.60;100.00
28626;BME280;18905;42.668;23.364;2023-02-21T06:09:30;95357.59;;;6.58;100.00
28626;BME280;18905;42.668;23.364;2023-02-21T06:11:55;95371.63;;;6.73;99.01
28626;BME280;18905;42.668;23.364;2023-02-21T06:14:21;95362.00;;;6.91;97.56
28626;BME280;18905;42.668;23.364;2023-02-21T06:16:46;95371.97;;;7.09;93.65
28626;BME280;18905;42.668;23.364;2023-02-21T06:19:13;95372.44;;;7.16;92.93
28626;BME280;18905;42.668;23.364;2023-02-21T06:21:40;95374.91;;;7.31;92.70
28626;BME280;18905;42.668;23.364;2023-02-21T06:24:06;95376.78;;;7.49;90.19
28626;BME280;18905;42.668;23.364;2023-02-21T06:26:32;95339.06;;;9.04;86.83
28626;BME280;18905;42.668;23.364;2023-02-21T06:28:57;95377.06;;;12.42;66.67
28626;BME280;18905;42.668;23.364;2023-02-21T06:33:58;95366.25;;;16.83;47.24
28626;BME280;18905;42.668;23.364;2023-02-21T06:36:24;95376.22;;;18.22;44.89
28626;BME280;18905;42.668;23.364;2023-02-21T06:38:51;95381.91;;;19.31;40.97
28626;BME280;18905;42.668;23.364;2023-02-21T06:41:17;95374.28;;;18.99;40.11
28626;BME280;18905;42.668;23.364;2023-02-21T06:43:43;95384.31;;;18.91;39.72
28626;BME280;18905;42.668;23.364;2023-02-21T06:46:08;95388.13;;;20.25;38.07
28626;BME280;18905;42.668;23.364;2023-02-21T06:48:34;95387.72;;;20.01;37.43
28626;BME280;18905;42.668;23.364;2023-02-21T06:51:00;95389.81;;;19.14;38.53
28626;BME280;18905;42.668;23.364;2023-02-21T06:53:25;95385.88;;;19.56;37.57
28626;BME280;18905;42.668;23.364;2023-02-21T06:55:51;95372.06;;;19.27;37.64
28626;BME280;18905;42.668;23.364;2023-02-21T06:58:17;95387.22;;;18.79;38.09
28626;BME280;18905;42.668;23.364;2023-02-21T07:00:42;95380.47;;;18.73;38.29
28626;BME280;18905;42.668;23.364;2023-02-21T07:03:08;95384.44;;;18.98;38.10
28626;BME280;18905;42.668;23.364;2023-02-21T07:05:33;95379.22;;;18.90;37.80
28626;BME280;18905;42.668;23.364;2023-02-21T07:08:01;95374.06;;;19.52;37.33
28626;BME280;18905;42.668;23.364;2023-02-21T07:10:29;95380.09;;;18.02;38.33
28626;BME280;18905;42.668;23.364;2023-02-21T07:12:55;95385.47;;;17.80;39.55
28626;BME280;18905;42.668;23.364;2023-02-21T07:15:21;95378.16;;;18.37;38.78
28626;BME280;18905;42.668;23.364;2023-02-21T07:17:46;95382.59;;;18.83;38.56
28626;BME280;18905;42.668;23.364;2023-02-21T07:20:12;95376.13;;;18.34;38.28
28626;BME280;18905;42.668;23.364;2023-02-21T07:22:37;95376.84;;;17.00;39.70
28626;BME280;18905;42.668;23.364;2023-02-21T07:25:03;95375.84;;;15.71;42.41
28626;BME280;18905;42.668;23.364;2023-02-21T07:27:29;95367.38;;;13.53;45.95
28626;BME280;18905;42.668;23.364;2023-02-21T07:35:05;95357.91;;;13.01;48.58
28626;BME280;18905;42.668;23.364;2023-02-21T07:37:30;95349.72;;;13.47;47.97
28626;BME280;18905;42.668;23.364;2023-02-21T07:39:56;95361.16;;;13.73;48.15
28626;BME280;18905;42.668;23.364;2023-02-21T07:42:22;95354.97;;;13.93;47.40
28626;BME280;18905;42.668;23.364;2023-02-21T07:44:47;95342.22;;;13.44;48.14
28626;BME280;18905;42.668;23.364;2023-02-21T07:49:48;95354.50;;;12.75;49.71
28626;BME280;18905;42.668;23.364;2023-02-21T07:52:13;95349.41;;;12.02;51.34
28626;BME280;18905;42.668;23.364;2023-02-21T07:54:39;95340.91;;;12.38;51.23
28626;BME280;18905;42.668;23.364;2023-02-21T08:25:33;95332.41;;;11.85;54.89
28626;BME280;18905;42.668;23.364;2023-02-21T08:27:59;95329.50;;;12.15;54.47
28626;BME280;18905;42.668;23.364;2023-02-21T08:30:24;95331.00;;;12.50;53.35
28626;BME280;18905;42.668;23.364;2023-02-21T08:32:50;95333.88;;;12.45;52.53
28626;BME280;18905;42.668;23.364;2023-02-21T08:35:16;95318.19;;;12.68;52.77
28626;BME280;18905;42.668;23.364;2023-02-21T08:37:45;95317.94;;;12.98;52.15
28626;BME280;18905;42.668;23.364;2023-02-21T08:40:11;95316.16;;;13.02;51.67
28626;BME280;18905;42.668;23.364;2023-02-21T08:42:36;95316.75;;;12.24;52.31
28626;BME280;18905;42.668;23.364;2023-02-21T08:45:02;95301.47;;;12.11;54.28
28626;BME280;18905;42.668;23.364;2023-02-21T08:47:27;95308.72;;;12.36;53.12
28626;BME280;18905;42.668;23.364;2023-02-21T08:49:53;95310.31;;;12.46;53.17
28626;BME280;18905;42.668;23.364;2023-02-21T08:52:19;95304.06;;;12.54;53.05
28626;BME280;18905;42.668;23.364;2023-02-21T08:54:45;95306.00;;;12.82;52.26
28626;BME280;18905;42.668;23.364;2023-02-21T08:57:11;95310.91;;;12.97;51.94
28626;BME280;18905;42.668;23.364;2023-02-21T08:59:40;95309.00;;;12.98;51.98
28626;BME280;18905;42.668;23.364;2023-02-21T09:02:13;95296.63;;;13.38;51.52
28626;BME280;18905;42.668;23.364;2023-02-21T09:04:39;95301.72;;;13.80;50.34
28626;BME280;18905;42.668;23.364;2023-02-21T09:07:05;95299.22;;;13.55;50.52
28626;BME280;18905;42.668;23.364;2023-02-21T09:09:30;95293.63;;;13.31;50.94
28626;BME280;18905;42.668;23.364;2023-02-21T09:11:57;95298.94;;;13.27;51.80
28626;BME280;18905;42.668;23.364;2023-02-21T09:14:22;95290.09;;;13.59;50.51
28626;BME280;18905;42.668;23.364;2023-02-21T09:16:48;95289.00;;;13.93;50.03
28626;BME280;18905;42.668;23.364;2023-02-21T09:19:13;95283.03;;;13.99;50.35
28626;BME280;18905;42.668;23.364;2023-02-21T09:21:43;95288.72;;;14.39;49.75
28626;BME280;18905;42.668;23.364;2023-02-21T09:24:09;95289.25;;;14.89;48.18
28626;BME280;18905;42.668;23.364;2023-02-21T09:26:35;95285.97;;;15.07;47.41
28626;BME280;18905;42.668;23.364;2023-02-21T09:29:01;95286.75;;;15.08;47.82
28626;BME280;18905;42.668;23.364;2023-02-21T09:31:26;95288.56;;;15.40;46.55
28626;BME280;18905;42.668;23.364;2023-02-21T09:33:52;95284.94;;;15.87;46.20
28626;BME280;18905;42.668;23.364;2023-02-21T09:36:17;95281.72;;;16.25;45.72
28626;BME280;18905;42.668;23.364;2023-02-21T09:38:48;95271.47;;;17.27;43.35
28626;BME280;18905;42.668;23.364;2023-02-21T09:41:14;95272.22;;;16.77;43.50
28626;BME280;18905;42.668;23.364;2023-02-21T09:43:42;95269.03;;;16.75;43.86
28626;BME280;18905;42.668;23.364;2023-02-21T09:48:38;95265.91;;;17.54;41.99
28626;BME280;18905;42.668;23.364;2023-02-21T09:51:05;95260.13;;;17.40;42.56
28626;BME280;18905;42.668;23.364;2023-02-21T09:53:34;95261.88;;;18.43;41.06
28626;BME280;18905;42.668;23.364;2023-02-21T09:56:09;95258.13;;;18.74;39.86
28626;BME280;18905;42.668;23.364;2023-02-21T09:58:38;95252.50;;;18.86;39.93
28626;BME280;18905;42.668;23.364;2023-02-21T10:01:15;95245.56;;;18.69;39.68
28626;BME280;18905;42.668;23.364;2023-02-21T10:08:58;95237.81;;;22.58;43.79
28626;BME280;18905;42.668;23.364;2023-02-21T10:16:30;95229.94;;;22.74;34.32
28626;BME280;18905;42.668;23.364;2023-02-21T10:21:41;95210.31;;;22.86;38.36
28626;BME280;18905;42.668;23.364;2023-02-21T10:24:27;95200.47;;;22.92;38.35
28626;BME280;18905;42.668;23.364;2023-02-21T10:26:56;95206.38;;;23.18;33.77
28626;BME280;18905;42.668;23.364;2023-02-21T10:29:25;95203.38;;;21.89;35.76
28626;BME280;18905;42.668;23.364;2023-02-21T10:31:52;95193.78;;;21.69;35.27
28626;BME280;18905;42.668;23.364;2023-02-21T10:34:21;95191.72;;;22.44;33.99
28626;BME280;18905;42.668;23.364;2023-02-21T10:36:47;95187.03;;;22.45;34.29
28626;BME280;18905;42.668;23.364;2023-02-21T10:39:17;95176.06;;;22.59;33.33
28626;BME280;18905;42.668;23.364;2023-02-21T10:41:43;95172.06;;;22.32;34.60
28626;BME280;18905;42.668;23.364;2023-02-21T10:44:13;95159.53;;;22.45;35.30
28626;BME280;18905;42.668;23.364;2023-02-21T10:46:55;95164.94;;;22.03;36.38
28626;BME280;18905;42.668;23.364;2023-02-21T10:50:07;95159.44;;;22.10;35.04
28626;BME280;18905;42.668;23.364;2023-02-21T10:52:14;95150.91;;;22.60;35.87
28626;BME280;18905;42.668;23.364;2023-02-21T10:55:19;95154.00;;;23.53;36.83
28626;BME280;18905;42.668;23.364;2023-02-21T10:57:38;95141.00;;;23.50;31.46
28626;BME280;18905;42.668;23.364;2023-02-21T11:00:05;95130.41;;;22.40;29.34
28626;BME280;18905;42.668;23.364;2023-02-21T11:02:40;95143.31;;;22.08;30.12
28626;BME280;18905;42.668;23.364;2023-02-21T11:07:34;95122.53;;;21.22;36.13
28626;BME280;18905;42.668;23.364;2023-02-21T11:09:59;95118.91;;;21.93;29.59
28626;BME280;18905;42.668;23.364;2023-02-21T11:12:25;95118.72;;;21.51;35.23
28626;BME280;18905;42.668;23.364;2023-02-21T11:19:42;95105.13;;;21.72;34.01
28626;BME280;18905;42.668;23.364;2023-02-21T11:22:08;95091.81;;;21.88;32.33
28626;BME280;18905;42.668;23.364;2023-02-21T11:27:18;95093.25;;;21.50;32.17
28626;BME280;18905;42.668;23.364;2023-02-21T11:29:43;95086.00;;;22.42;33.48
28626;BME280;18905;42.668;23.364;2023-02-21T11:32:11;95083.00;;;21.44;36.00
28626;BME280;18905;42.668;23.364;2023-02-21T11:34:37;95080.19;;;21.30;33.97
28626;BME280;18905;42.668;23.364;2023-02-21T11:37:09;95078.72;;;20.31;32.23
28626;BME280;18905;42.668;23.364;2023-02-21T11:39:34;95066.72;;;20.06;33.92
28626;BME280;18905;42.668;23.364;2023-02-21T11:42:00;95072.28;;;20.60;31.33
28626;BME280;18905;42.668;23.364;2023-02-21T11:49:35;95044.94;;;20.70;31.23
28626;BME280;18905;42.668;23.364;2023-02-21T11:52:02;95049.81;;;21.02;30.88
28626;BME280;18905;42.668;23.364;2023-02-21T11:54:29;95043.16;;;20.99;31.26
28626;BME280;18905;42.668;23.364;2023-02-21T12:02:12;95032.00;;;21.50;35.96
28626;BME280;18905;42.668;23.364;2023-02-21T12:17:18;95009.09;;;20.46;33.68
28626;BME280;18905;42.668;23.364;2023-02-21T12:20:02;94997.56;;;20.87;31.14
28626;BME280;18905;42.668;23.364;2023-02-21T12:25:19;94985.97;;;21.15;34.98
28626;BME280;18905;42.668;23.364;2023-02-21T12:33:10;94971.53;;;21.39;36.31
28626;BME280;18905;42.668;23.364;2023-02-21T12:35:50;94972.25;;;21.12;35.77
28626;BME280;18905;42.668;23.364;2023-02-21T12:38:22;94977.69;;;21.05;31.69
28626;BME280;18905;42.668;23.364;2023-02-21T12:43:25;94977.38;;;21.20;32.06
28626;BME280;18905;42.668;23.364;2023-02-21T12:46:06;94971.81;;;21.06;31.40
28626;BME280;18905;42.668;23.364;2023-02-21T12:51:36;94952.31;;;21.36;31.68
28626;BME280;18905;42.668;23.364;2023-02-21T12:54:19;94959.22;;;20.95;33.18
28626;BME280;18905;42.668;23.364;2023-02-21T12:56:52;94965.72;;;21.65;32.59
28626;BME280;18905;42.668;23.364;2023-02-21T12:59:32;94963.81;;;21.80;37.86
28626;BME280;18905;42.668;23.364;2023-02-21T13:02:03;94966.13;;;22.34;31.96
28626;BME280;18905;42.668;23.364;2023-02-21T13:04:47;94957.91;;;21.71;37.91
28626;BME280;18905;42.668;23.364;2023-02-21T13:07:16;94962.88;;;21.34;39.46
28626;BME280;18905;42.668;23.364;2023-02-21T13:09:53;94957.06;;;21.56;34.77
28626;BME280;18905;42.668;23.364;2023-02-21T13:12:24;94959.88;;;21.77;34.16
28626;BME280;18905;42.668;23.364;2023-02-21T13:14:59;94955.97;;;22.03;36.38
28626;BME280;18905;42.668;23.364;2023-02-21T13:17:26;94958.31;;;21.80;31.88
28626;BME280;18905;42.668;23.364;2023-02-21T13:19:57;94949.25;;;22.32;35.57
28626;BME280;18905;42.668;23.364;2023-02-21T13:28:23;94941.03;;;21.90;31.40
28626;BME280;18905;42.668;23.364;2023-02-21T13:30:50;94938.78;;;20.88;32.12
28626;BME280;18905;42.668;23.364;2023-02-21T13:33:23;94941.00;;;22.11;38.40
28626;BME280;18905;42.668;23.364;2023-02-21T13:35:48;94940.25;;;20.65;31.88
28626;BME280;18905;42.668;23.364;2023-02-21T13:38:15;94938.63;;;20.57;32.49
28626;BME280;18905;42.668;23.364;2023-02-21T13:40:50;94926.97;;;20.77;33.90
28626;BME280;18905;42.668;23.364;2023-02-21T13:43:29;94934.00;;;20.68;32.56
28626;BME280;18905;42.668;23.364;2023-02-21T13:48:39;94926.84;;;20.49;32.08
28626;BME280;18905;42.668;23.364;2023-02-21T13:51:05;94915.50;;;20.54;31.71
28626;BME280;18905;42.668;23.364;2023-02-21T13:53:31;94916.34;;;20.69;32.63
28626;BME280;18905;42.668;23.364;2023-02-21T13:58:28;94914.25;;;21.27;38.14
28626;BME280;18905;42.668;23.364;2023-02-21T14:00:54;94910.16;;;20.86;32.12
28626;BME280;18905;42.668;23.364;2023-02-21T14:10:52;94914.66;;;22.34;35.52
28626;BME280;18905;42.668;23.364;2023-02-21T14:13:20;94896.81;;;20.84;30.99
28626;BME280;18905;42.668;23.364;2023-02-21T14:15:48;94903.94;;;20.17;32.22
28626;BME280;18905;42.668;23.364;2023-02-21T14:23:48;94901.06;;;23.17;36.47
28626;BME280;18905;42.668;23.364;2023-02-21T14:26:33;94899.56;;;22.98;30.57
28626;BME280;18905;42.668;23.364;2023-02-21T16:38:57;94935.25;;;15.88;36.35
28626;BME280;18905;42.668;23.364;2023-02-21T16:41:22;94949.31;;;15.90;36.12
28626;BME280;18905;42.668;23.364;2023-02-21T16:43:48;94943.88;;;15.90;36.05
28626;BME280;18905;42.668;23.364;2023-02-21T16:46:14;94942.03;;;15.94;35.97
28626;BME280;18905;42.668;23.364;2023-02-21T16:48:40;94941.75;;;15.99;36.42
28626;BME280;18905;42.668;23.364;2023-02-21T16:51:10;94951.44;;;15.81;36.74
28626;BME280;18905;42.668;23.364;2023-02-21T16:53:37;94953.22;;;15.74;36.96
28626;BME280;18905;42.668;23.364;2023-02-21T16:56:03;94950.22;;;15.63;37.12
28626;BME280;18905;42.668;23.364;2023-02-21T16:58:30;94951.28;;;15.59;37.52
28626;BME280;18905;42.668;23.364;2023-02-21T17:00:58;94950.75;;;15.53;37.44
28626;BME280;18905;42.668;23.364;2023-02-21T17:03:24;94957.31;;;15.52;37.58
28626;BME280;18905;42.668;23.364;2023-02-21T17:05:50;94961.81;;;15.45;36.92
28626;BME280;18905;42.668;23.364;2023-02-21T17:08:16;94958.31;;;15.01;37.26
28626;BME280;18905;42.668;23.364;2023-02-21T17:10:41;94960.59;;;14.99;37.29
28626;BME280;18905;42.668;23.364;2023-02-21T17:13:06;94962.59;;;15.02;37.22
28626;BME280;18905;42.668;23.364;2023-02-21T17:15:32;94963.56;;;14.94;37.52
28626;BME280;18905;42.668;23.364;2023-02-21T17:17:57;94967.34;;;15.05;37.60
28626;BME280;18905;42.668;23.364;2023-02-21T17:20:23;94970.56;;;14.95;37.69
28626;BME280;18905;42.668;23.364;2023-02-21T17:22:49;94960.84;;;14.94;37.94
28626;BME280;18905;42.668;23.364;2023-02-21T17:25:15;94968.88;;;14.91;38.11
28626;BME280;18905;42.668;23.364;2023-02-21T17:27:41;94970.38;;;14.88;38.60
28626;BME280;18905;42.668;23.364;2023-02-21T17:30:06;94956.63;;;14.69;39.09
28626;BME280;18905;42.668;23.364;2023-02-21T17:32:32;94963.25;;;14.56;38.86
28626;BME280;18905;42.668;23.364;2023-02-21T17:34:57;94966.47;;;14.46;39.09
28626;BME280;18905;42.668;23.364;2023-02-21T17:37:23;94960.50;;;14.41;38.93
28626;BME280;18905;42.668;23.364;2023-02-21T17:39:52;94967.94;;;14.44;38.70
28626;BME280;18905;42.668;23.364;2023-02-21T17:42:18;94965.97;;;14.29;38.82
28626;BME280;18905;42.668;23.364;2023-02-21T17:44:43;94976.59;;;14.10;39.26
28626;BME280;18905;42.668;23.364;2023-02-21T17:47:11;94970.72;;;14.08;39.42
28626;BME280;18905;42.668;23.364;2023-02-21T17:49:37;94968.22;;;14.03;39.59
28626;BME280;18905;42.668;23.364;2023-02-21T17:52:02;94967.31;;;13.99;40.03
28626;BME280;18905;42.668;23.364;2023-02-21T17:54:27;94963.84;;;13.98;40.25
28626;BME280;18905;42.668;23.364;2023-02-21T17:56:52;94960.00;;;13.87;40.88
28626;BME280;18905;42.668;23.364;2023-02-21T17:59:18;94966.69;;;13.78;40.81
28626;BME280;18905;42.668;23.364;2023-02-21T18:01:43;94959.31;;;13.30;41.65
28626;BME280;18905;42.668;23.364;2023-02-21T18:04:09;94967.44;;;13.30;42.41